sensor_id;sensor_type;location;lat;lon;timestamp;temperature;humidity
81216;DHT22;70688;52.492;13.420;2023-08-07T00:00:31;17.40;65.90
81216;DHT22;70688;52.492;13.420;2023-08-07T00:02:56;17.40;65.60
81216;DHT22;70688;52.492;13.420;2023-08-07T00:05:22;17.50;65.40
81216;DHT22;70688;52.492;13.420;2023-08-07T00:07:48;17.50;65.70
81216;DHT22;70688;52.492;13.420;2023-08-07T00:10:13;17.40;65.80
81216;DHT22;70688;52.492;13.420;2023-08-07T00:12:39;17.40;65.90
81216;DHT22;70688;52.492;13.420;2023-08-07T00:15:05;17.40;65.80
81216;DHT22;70688;52.492;13.420;2023-08-07T00:17:31;17.50;65.40
81216;DHT22;70688;52.492;13.420;2023-08-07T00:19:57;17.50;65.80
81216;DHT22;70688;52.492;13.420;2023-08-07T00:22:22;17.40;66.10
81216;DHT22;70688;52.492;13.420;2023-08-07T00:24:48;17.40;66.80
81216;DHT22;70688;52.492;13.420;2023-08-07T00:27:14;17.40;67.20
81216;DHT22;70688;52.492;13.420;2023-08-07T00:29:40;17.30;67.60
81216;DHT22;70688;52.492;13.420;2023-08-07T00:32:06;17.50;67.50
81216;DHT22;70688;52.492;13.420;2023-08-07T00:34:32;17.50;68.00
81216;DHT22;70688;52.492;13.420;2023-08-07T00:36:57;17.50;67.90
81216;DHT22;70688;52.492;13.420;2023-08-07T00:39:23;17.40;68.40
81216;DHT22;70688;52.492;13.420;2023-08-07T00:41:49;17.50;68.10
81216;DHT22;70688;52.492;13.420;2023-08-07T00:44:15;17.50;68.50
81216;DHT22;70688;52.492;13.420;2023-08-07T00:46:41;17.60;68.50
81216;DHT22;70688;52.492;13.420;2023-08-07T00:49:08;17.50;68.40
81216;DHT22;70688;52.492;13.420;2023-08-07T00:51:35;17.40;69.00
81216;DHT22;70688;52.492;13.420;2023-08-07T00:54:03;17.30;69.30
81216;DHT22;70688;52.492;13.420;2023-08-07T00:56:29;17.40;69.70
81216;DHT22;70688;52.492;13.420;2023-08-07T00:58:56;17.30;69.30
81216;DHT22;70688;52.492;13.420;2023-08-07T01:01:22;17.30;69.10
81216;DHT22;70688;52.492;13.420;2023-08-07T01:03:48;17.30;69.10
81216;DHT22;70688;52.492;13.420;2023-08-07T01:06:14;17.40;68.90
81216;DHT22;70688;52.492;13.420;2023-08-07T01:08:40;17.20;68.90
81216;DHT22;70688;52.492;13.420;2023-08-07T01:11:23;17.30;68.70
81216;DHT22;70688;52.492;13.420;2023-08-07T01:19:29;17.50;68.40
81216;DHT22;70688;52.492;13.420;2023-08-07T01:22:16;17.40;69.20
81216;DHT22;70688;52.492;13.420;2023-08-07T01:24:43;17.30;69.10
81216;DHT22;70688;52.492;13.420;2023-08-07T01:27:15;17.40;68.90
81216;DHT22;70688;52.492;13.420;2023-08-07T01:35:39;17.40;68.60
81216;DHT22;70688;52.492;13.420;2023-08-07T01:38:06;17.40;68.90
81216;DHT22;70688;52.492;13.420;2023-08-07T01:40:32;17.50;68.30
81216;DHT22;70688;52.492;13.420;2023-08-07T01:42:58;17.50;67.40
81216;DHT22;70688;52.492;13.420;2023-08-07T01:45:25;17.30;68.30
81216;DHT22;70688;52.492;13.420;2023-08-07T01:47:51;17.40;68.00
81216;DHT22;70688;52.492;13.420;2023-08-07T01:50:18;17.30;68.70
81216;DHT22;70688;52.492;13.420;2023-08-07T01:52:44;17.20;69.20
81216;DHT22;70688;52.492;13.420;2023-08-07T01:55:09;17.00;70.20
81216;DHT22;70688;52.492;13.420;2023-08-07T01:57:35;17.00;70.00
81216;DHT22;70688;52.492;13.420;2023-08-07T02:00:00;16.80;71.20
81216;DHT22;70688;52.492;13.420;2023-08-07T02:02:26;16.80;71.40
81216;DHT22;70688;52.492;13.420;2023-08-07T02:04:52;16.80;71.30
81216;DHT22;70688;52.492;13.420;2023-08-07T02:07:17;17.00;70.70
81216;DHT22;70688;52.492;13.420;2023-08-07T02:09:43;17.00;70.40
81216;DHT22;70688;52.492;13.420;2023-08-07T02:12:08;17.10;70.10
81216;DHT22;70688;52.492;13.420;2023-08-07T02:14:34;17.00;70.20
81216;DHT22;70688;52.492;13.420;2023-08-07T02:16:59;17.00;70.60
81216;DHT22;70688;52.492;13.420;2023-08-07T02:19:25;17.00;70.60
81216;DHT22;70688;52.492;13.420;2023-08-07T02:21:50;16.90;71.10
81216;DHT22;70688;52.492;13.420;2023-08-07T02:24:16;16.80;72.10
81216;DHT22;70688;52.492;13.420;2023-08-07T02:26:43;16.80;72.10
81216;DHT22;70688;52.492;13.420;2023-08-07T02:29:09;16.70;72.00
81216;DHT22;70688;52.492;13.420;2023-08-07T02:31:34;16.80;72.40
81216;DHT22;70688;52.492;13.420;2023-08-07T02:34:00;16.60;73.10
81216;DHT22;70688;52.492;13.420;2023-08-07T02:36:25;16.80;73.20
81216;DHT22;70688;52.492;13.420;2023-08-07T02:38:51;16.70;73.50
81216;DHT22;70688;52.492;13.420;2023-08-07T02:41:17;16.90;72.90
81216;DHT22;70688;52.492;13.420;2023-08-07T02:43:42;17.00;72.20
81216;DHT22;70688;52.492;13.420;2023-08-07T02:46:08;16.90;72.90
81216;DHT22;70688;52.492;13.420;2023-08-07T02:48:34;17.00;72.40
81216;DHT22;70688;52.492;13.420;2023-08-07T02:50:59;17.10;72.50
81216;DHT22;70688;52.492;13.420;2023-08-07T02:53:25;17.20;72.20
81216;DHT22;70688;52.492;13.420;2023-08-07T02:55:50;17.20;72.30
81216;DHT22;70688;52.492;13.420;2023-08-07T02:58:16;17.20;72.30
81216;DHT22;70688;52.492;13.420;2023-08-07T03:00:41;17.20;72.30
81216;DHT22;70688;52.492;13.420;2023-08-07T03:03:08;17.10;73.20
81216;DHT22;70688;52.492;13.420;2023-08-07T03:05:34;17.00;73.70
81216;DHT22;70688;52.492;13.420;2023-08-07T03:08:00;17.00;74.00
81216;DHT22;70688;52.492;13.420;2023-08-07T03:10:25;17.20;73.00
81216;DHT22;70688;52.492;13.420;2023-08-07T03:12:51;17.20;73.40
81216;DHT22;70688;52.492;13.420;2023-08-07T03:15:16;17.10;73.60
81216;DHT22;70688;52.492;13.420;2023-08-07T03:17:42;17.10;73.90
81216;DHT22;70688;52.492;13.420;2023-08-07T03:20:08;17.10;74.20
81216;DHT22;70688;52.492;13.420;2023-08-07T03:22:35;17.00;74.70
81216;DHT22;70688;52.492;13.420;2023-08-07T03:25:00;16.90;75.10
81216;DHT22;70688;52.492;13.420;2023-08-07T03:27:26;16.80;75.20
81216;DHT22;70688;52.492;13.420;2023-08-07T03:29:51;16.70;76.00
81216;DHT22;70688;52.492;13.420;2023-08-07T03:32:18;16.70;76.10
81216;DHT22;70688;52.492;13.420;2023-08-07T03:34:43;16.90;75.70
81216;DHT22;70688;52.492;13.420;2023-08-07T03:37:09;17.00;75.20
81216;DHT22;70688;52.492;13.420;2023-08-07T03:39:34;17.10;74.40
81216;DHT22;70688;52.492;13.420;2023-08-07T03:42:00;17.20;74.00
81216;DHT22;70688;52.492;13.420;2023-08-07T03:44:25;17.20;73.90
81216;DHT22;70688;52.492;13.420;2023-08-07T03:46:51;17.20;74.10
81216;DHT22;70688;52.492;13.420;2023-08-07T03:49:17;17.20;73.90
81216;DHT22;70688;52.492;13.420;2023-08-07T03:51:42;17.20;74.30
81216;DHT22;70688;52.492;13.420;2023-08-07T03:54:08;17.10;74.50
81216;DHT22;70688;52.492;13.420;2023-08-07T03:56:34;17.10;74.50
81216;DHT22;70688;52.492;13.420;2023-08-07T03:59:02;17.10;74.50
81216;DHT22;70688;52.492;13.420;2023-08-07T04:01:28;17.10;74.50
81216;DHT22;70688;52.492;13.420;2023-08-07T04:03:53;17.10;74.40
81216;DHT22;70688;52.492;13.420;2023-08-07T04:06:20;17.10;74.40
81216;DHT22;70688;52.492;13.420;2023-08-07T04:08:46;17.10;74.30
81216;DHT22;70688;52.492;13.420;2023-08-07T04:11:12;17.10;74.50
81216;DHT22;70688;52.492;13.420;2023-08-07T04:13:38;17.10;74.00
81216;DHT22;70688;52.492;13.420;2023-08-07T04:16:04;17.10;73.90
81216;DHT22;70688;52.492;13.420;2023-08-07T04:18:31;17.00;74.40
81216;DHT22;70688;52.492;13.420;2023-08-07T04:20:57;17.00;74.50
81216;DHT22;70688;52.492;13.420;2023-08-07T04:23:23;17.20;73.90
81216;DHT22;70688;52.492;13.420;2023-08-07T04:25:50;17.30;73.40
81216;DHT22;70688;52.492;13.420;2023-08-07T04:28:16;17.20;73.30
81216;DHT22;70688;52.492;13.420;2023-08-07T04:30:43;17.20;73.20
81216;DHT22;70688;52.492;13.420;2023-08-07T04:33:08;17.20;73.50
81216;DHT22;70688;52.492;13.420;2023-08-07T04:35:34;17.40;72.40
81216;DHT22;70688;52.492;13.420;2023-08-07T04:38:00;17.40;72.40
81216;DHT22;70688;52.492;13.420;2023-08-07T04:40:26;17.50;71.60
81216;DHT22;70688;52.492;13.420;2023-08-07T04:42:52;17.60;71.40
81216;DHT22;70688;52.492;13.420;2023-08-07T04:45:17;17.50;71.20
81216;DHT22;70688;52.492;13.420;2023-08-07T04:47:43;17.50;71.70
81216;DHT22;70688;52.492;13.420;2023-08-07T04:50:09;17.60;71.00
81216;DHT22;70688;52.492;13.420;2023-08-07T04:52:35;17.60;70.90
81216;DHT22;70688;52.492;13.420;2023-08-07T04:55:01;17.80;69.90
81216;DHT22;70688;52.492;13.420;2023-08-07T04:57:26;17.90;69.70
81216;DHT22;70688;52.492;13.420;2023-08-07T04:59:52;17.90;69.80
81216;DHT22;70688;52.492;13.420;2023-08-07T05:02:18;17.70;70.10
81216;DHT22;70688;52.492;13.420;2023-08-07T05:04:44;17.90;69.50
81216;DHT22;70688;52.492;13.420;2023-08-07T05:07:11;18.00;68.50
81216;DHT22;70688;52.492;13.420;2023-08-07T05:09:36;18.10;68.20
81216;DHT22;70688;52.492;13.420;2023-08-07T05:12:02;18.20;67.60
81216;DHT22;70688;52.492;13.420;2023-08-07T05:14:29;18.20;67.60
81216;DHT22;70688;52.492;13.420;2023-08-07T05:16:55;18.00;67.50
81216;DHT22;70688;52.492;13.420;2023-08-07T05:19:21;18.10;67.30
81216;DHT22;70688;52.492;13.420;2023-08-07T05:21:47;17.90;67.90
81216;DHT22;70688;52.492;13.420;2023-08-07T05:24:16;17.90;68.10
81216;DHT22;70688;52.492;13.420;2023-08-07T05:26:41;17.90;67.80
81216;DHT22;70688;52.492;13.420;2023-08-07T05:29:07;17.80;67.90
81216;DHT22;70688;52.492;13.420;2023-08-07T05:31:33;17.70;68.40
81216;DHT22;70688;52.492;13.420;2023-08-07T05:33:59;17.60;68.60
81216;DHT22;70688;52.492;13.420;2023-08-07T05:36:25;17.50;68.90
81216;DHT22;70688;52.492;13.420;2023-08-07T05:38:51;17.50;69.00
81216;DHT22;70688;52.492;13.420;2023-08-07T05:41:16;17.70;68.40
81216;DHT22;70688;52.492;13.420;2023-08-07T05:43:42;17.80;67.90
81216;DHT22;70688;52.492;13.420;2023-08-07T05:46:08;17.80;67.80
81216;DHT22;70688;52.492;13.420;2023-08-07T05:48:33;17.70;68.10
81216;DHT22;70688;52.492;13.420;2023-08-07T05:50:59;17.70;68.10
81216;DHT22;70688;52.492;13.420;2023-08-07T05:53:25;17.80;67.80
81216;DHT22;70688;52.492;13.420;2023-08-07T05:55:50;18.00;67.40
81216;DHT22;70688;52.492;13.420;2023-08-07T05:58:16;18.10;66.40
81216;DHT22;70688;52.492;13.420;2023-08-07T06:00:41;18.20;66.10
81216;DHT22;70688;52.492;13.420;2023-08-07T06:03:07;18.00;66.90
81216;DHT22;70688;52.492;13.420;2023-08-07T06:05:33;18.30;66.20
81216;DHT22;70688;52.492;13.420;2023-08-07T06:08:00;18.50;65.40
81216;DHT22;70688;52.492;13.420;2023-08-07T06:10:26;18.80;64.10
81216;DHT22;70688;52.492;13.420;2023-08-07T06:12:52;19.00;63.60
81216;DHT22;70688;52.492;13.420;2023-08-07T06:15:18;19.20;62.80
81216;DHT22;70688;52.492;13.420;2023-08-07T06:17:43;19.40;61.80
81216;DHT22;70688;52.492;13.420;2023-08-07T06:20:09;19.30;61.70
81216;DHT22;70688;52.492;13.420;2023-08-07T06:22:36;19.30;61.60
81216;DHT22;70688;52.492;13.420;2023-08-07T06:25:02;19.30;62.20
81216;DHT22;70688;52.492;13.420;2023-08-07T06:27:28;19.30;61.50
81216;DHT22;70688;52.492;13.420;2023-08-07T06:29:53;19.30;61.20
81216;DHT22;70688;52.492;13.420;2023-08-07T06:32:19;19.30;61.40
81216;DHT22;70688;52.492;13.420;2023-08-07T06:34:45;19.50;61.10
81216;DHT22;70688;52.492;13.420;2023-08-07T06:37:11;19.60;60.40
81216;DHT22;70688;52.492;13.420;2023-08-07T06:39:37;19.60;59.50
81216;DHT22;70688;52.492;13.420;2023-08-07T06:42:03;19.60;59.10
81216;DHT22;70688;52.492;13.420;2023-08-07T06:44:29;19.60;59.10
81216;DHT22;70688;52.492;13.420;2023-08-07T06:46:55;19.80;58.80
81216;DHT22;70688;52.492;13.420;2023-08-07T06:49:20;20.00;57.90
81216;DHT22;70688;52.492;13.420;2023-08-07T06:51:46;20.00;57.60
81216;DHT22;70688;52.492;13.420;2023-08-07T06:54:11;19.90;57.60
81216;DHT22;70688;52.492;13.420;2023-08-07T06:56:37;19.80;57.90
81216;DHT22;70688;52.492;13.420;2023-08-07T06:59:06;20.00;57.60
81216;DHT22;70688;52.492;13.420;2023-08-07T07:01:31;20.10;56.70
81216;DHT22;70688;52.492;13.420;2023-08-07T07:03:57;20.30;56.10
81216;DHT22;70688;52.492;13.420;2023-08-07T07:06:23;20.50;55.90
81216;DHT22;70688;52.492;13.420;2023-08-07T07:08:51;20.90;54.70
81216;DHT22;70688;52.492;13.420;2023-08-07T07:11:20;21.20;53.30
81216;DHT22;70688;52.492;13.420;2023-08-07T07:13:46;21.20;52.90
81216;DHT22;70688;52.492;13.420;2023-08-07T07:16:11;21.10;53.20
81216;DHT22;70688;52.492;13.420;2023-08-07T07:18:38;21.10;52.60
81216;DHT22;70688;52.492;13.420;2023-08-07T07:21:04;21.10;52.70
81216;DHT22;70688;52.492;13.420;2023-08-07T07:23:30;21.20;52.80
81216;DHT22;70688;52.492;13.420;2023-08-07T07:25:56;20.90;53.50
81216;DHT22;70688;52.492;13.420;2023-08-07T07:28:23;21.40;52.10
81216;DHT22;70688;52.492;13.420;2023-08-07T07:30:49;21.80;51.00
81216;DHT22;70688;52.492;13.420;2023-08-07T07:33:15;22.10;49.60
81216;DHT22;70688;52.492;13.420;2023-08-07T07:35:40;21.90;49.90
81216;DHT22;70688;52.492;13.420;2023-08-07T07:38:06;21.80;50.10
81216;DHT22;70688;52.492;13.420;2023-08-07T07:40:32;21.60;50.10
81216;DHT22;70688;52.492;13.420;2023-08-07T07:42:59;21.60;50.80
81216;DHT22;70688;52.492;13.420;2023-08-07T07:45:24;21.80;50.70
81216;DHT22;70688;52.492;13.420;2023-08-07T07:47:50;21.70;50.20
81216;DHT22;70688;52.492;13.420;2023-08-07T07:50:15;21.80;50.10
81216;DHT22;70688;52.492;13.420;2023-08-07T07:52:41;21.90;51.00
81216;DHT22;70688;52.492;13.420;2023-08-07T07:55:07;22.20;49.20
81216;DHT22;70688;52.492;13.420;2023-08-07T07:57:34;22.50;48.10
81216;DHT22;70688;52.492;13.420;2023-08-07T08:00:00;22.40;49.00
81216;DHT22;70688;52.492;13.420;2023-08-07T08:02:26;22.60;47.70
81216;DHT22;70688;52.492;13.420;2023-08-07T08:04:52;22.90;46.80
81216;DHT22;70688;52.492;13.420;2023-08-07T08:07:18;22.70;46.10
81216;DHT22;70688;52.492;13.420;2023-08-07T08:09:43;22.90;46.30
81216;DHT22;70688;52.492;13.420;2023-08-07T08:12:10;22.60;47.10
81216;DHT22;70688;52.492;13.420;2023-08-07T08:14:36;22.30;47.60
81216;DHT22;70688;52.492;13.420;2023-08-07T08:17:02;22.10;48.40
81216;DHT22;70688;52.492;13.420;2023-08-07T08:19:27;22.40;48.20
81216;DHT22;70688;52.492;13.420;2023-08-07T08:21:53;22.50;47.80
81216;DHT22;70688;52.492;13.420;2023-08-07T08:24:19;22.40;48.10
81216;DHT22;70688;52.492;13.420;2023-08-07T08:26:44;22.00;48.90
81216;DHT22;70688;52.492;13.420;2023-08-07T08:29:14;21.70;50.10
81216;DHT22;70688;52.492;13.420;2023-08-07T08:31:40;21.80;50.30
81216;DHT22;70688;52.492;13.420;2023-08-07T08:34:05;21.60;51.20
81216;DHT22;70688;52.492;13.420;2023-08-07T08:36:31;21.20;52.00
81216;DHT22;70688;52.492;13.420;2023-08-07T08:38:56;20.90;53.10
81216;DHT22;70688;52.492;13.420;2023-08-07T08:41:22;20.70;54.30
81216;DHT22;70688;52.492;13.420;2023-08-07T08:43:50;20.50;54.70
81216;DHT22;70688;52.492;13.420;2023-08-07T08:46:20;20.70;54.50
81216;DHT22;70688;52.492;13.420;2023-08-07T08:48:51;21.00;53.40
81216;DHT22;70688;52.492;13.420;2023-08-07T08:51:21;21.00;53.40
81216;DHT22;70688;52.492;13.420;2023-08-07T08:53:48;20.70;53.80
81216;DHT22;70688;52.492;13.420;2023-08-07T08:56:15;20.80;53.70
81216;DHT22;70688;52.492;13.420;2023-08-07T08:58:42;21.10;52.90
81216;DHT22;70688;52.492;13.420;2023-08-07T09:01:08;21.30;51.70
81216;DHT22;70688;52.492;13.420;2023-08-07T09:03:36;21.70;50.90
81216;DHT22;70688;52.492;13.420;2023-08-07T09:06:01;22.00;49.90
81216;DHT22;70688;52.492;13.420;2023-08-07T09:08:27;22.20;48.90
81216;DHT22;70688;52.492;13.420;2023-08-07T09:10:56;22.50;48.10
81216;DHT22;70688;52.492;13.420;2023-08-07T09:13:23;22.70;47.50
81216;DHT22;70688;52.492;13.420;2023-08-07T09:15:51;23.10;45.90
81216;DHT22;70688;52.492;13.420;2023-08-07T09:18:17;22.90;44.80
81216;DHT22;70688;52.492;13.420;2023-08-07T09:20:44;22.50;46.80
81216;DHT22;70688;52.492;13.420;2023-08-07T09:23:09;22.20;48.50
81216;DHT22;70688;52.492;13.420;2023-08-07T09:25:35;21.80;49.70
81216;DHT22;70688;52.492;13.420;2023-08-07T09:28:02;21.50;52.00
81216;DHT22;70688;52.492;13.420;2023-08-07T09:30:33;21.40;52.70
81216;DHT22;70688;52.492;13.420;2023-08-07T09:33:00;21.40;52.90
81216;DHT22;70688;52.492;13.420;2023-08-07T09:35:26;21.60;52.50
81216;DHT22;70688;52.492;13.420;2023-08-07T09:37:52;21.80;52.00
81216;DHT22;70688;52.492;13.420;2023-08-07T09:40:18;22.10;51.50
81216;DHT22;70688;52.492;13.420;2023-08-07T09:42:44;22.60;50.40
81216;DHT22;70688;52.492;13.420;2023-08-07T09:45:22;22.60;49.70
81216;DHT22;70688;52.492;13.420;2023-08-07T09:48:04;22.40;49.50
81216;DHT22;70688;52.492;13.420;2023-08-07T09:50:31;22.00;50.80
81216;DHT22;70688;52.492;13.420;2023-08-07T09:52:57;21.80;51.10
81216;DHT22;70688;52.492;13.420;2023-08-07T09:55:24;21.70;51.40
81216;DHT22;70688;52.492;13.420;2023-08-07T09:57:50;21.80;50.40
81216;DHT22;70688;52.492;13.420;2023-08-07T10:00:16;21.80;50.70
81216;DHT22;70688;52.492;13.420;2023-08-07T10:02:42;21.80;50.50
81216;DHT22;70688;52.492;13.420;2023-08-07T10:05:12;21.80;50.80
81216;DHT22;70688;52.492;13.420;2023-08-07T10:07:41;21.60;50.80
81216;DHT22;70688;52.492;13.420;2023-08-07T10:10:07;21.40;51.60
81216;DHT22;70688;52.492;13.420;2023-08-07T10:12:34;21.40;51.50
81216;DHT22;70688;52.492;13.420;2023-08-07T10:15:00;21.70;51.30
81216;DHT22;70688;52.492;13.420;2023-08-07T10:17:27;21.80;49.70
81216;DHT22;70688;52.492;13.420;2023-08-07T10:19:52;21.90;48.40
81216;DHT22;70688;52.492;13.420;2023-08-07T10:22:24;22.10;48.30
81216;DHT22;70688;52.492;13.420;2023-08-07T10:24:50;21.90;48.30
81216;DHT22;70688;52.492;13.420;2023-08-07T10:27:20;21.60;48.80
81216;DHT22;70688;52.492;13.420;2023-08-07T10:29:48;21.60;49.50
81216;DHT22;70688;52.492;13.420;2023-08-07T10:32:15;21.70;49.20
81216;DHT22;70688;52.492;13.420;2023-08-07T10:34:47;21.90;48.80
81216;DHT22;70688;52.492;13.420;2023-08-07T10:37:32;22.00;48.30
81216;DHT22;70688;52.492;13.420;2023-08-07T10:40:03;22.10;47.50
81216;DHT22;70688;52.492;13.420;2023-08-07T10:42:49;22.00;47.20
81216;DHT22;70688;52.492;13.420;2023-08-07T10:45:17;22.10;47.40
81216;DHT22;70688;52.492;13.420;2023-08-07T10:47:43;21.90;46.90
81216;DHT22;70688;52.492;13.420;2023-08-07T10:50:09;22.10;46.60
81216;DHT22;70688;52.492;13.420;2023-08-07T10:52:38;22.00;47.00
81216;DHT22;70688;52.492;13.420;2023-08-07T10:55:13;21.80;47.70
81216;DHT22;70688;52.492;13.420;2023-08-07T10:57:40;21.80;47.50
81216;DHT22;70688;52.492;13.420;2023-08-07T11:00:06;21.70;48.10
81216;DHT22;70688;52.492;13.420;2023-08-07T11:02:37;21.80;48.20
81216;DHT22;70688;52.492;13.420;2023-08-07T11:05:05;22.00;48.10
81216;DHT22;70688;52.492;13.420;2023-08-07T11:07:31;22.00;47.50
81216;DHT22;70688;52.492;13.420;2023-08-07T11:09:58;22.10;47.60
81216;DHT22;70688;52.492;13.420;2023-08-07T11:12:27;21.90;47.90
81216;DHT22;70688;52.492;13.420;2023-08-07T11:14:54;21.40;50.20
81216;DHT22;70688;52.492;13.420;2023-08-07T11:17:27;21.00;53.70
81216;DHT22;70688;52.492;13.420;2023-08-07T11:19:53;20.70;55.80
81216;DHT22;70688;52.492;13.420;2023-08-07T11:22:20;20.50;56.70
81216;DHT22;70688;52.492;13.420;2023-08-07T11:24:50;20.50;57.30
81216;DHT22;70688;52.492;13.420;2023-08-07T11:27:16;20.70;56.40
81216;DHT22;70688;52.492;13.420;2023-08-07T11:29:44;20.80;56.90
81216;DHT22;70688;52.492;13.420;2023-08-07T11:32:10;20.80;56.30
81216;DHT22;70688;52.492;13.420;2023-08-07T11:34:36;20.60;56.70
81216;DHT22;70688;52.492;13.420;2023-08-07T11:37:01;20.80;56.30
81216;DHT22;70688;52.492;13.420;2023-08-07T11:39:27;20.90;56.10
81216;DHT22;70688;52.492;13.420;2023-08-07T11:41:53;21.00;55.80
81216;DHT22;70688;52.492;13.420;2023-08-07T11:44:19;21.00;56.10
81216;DHT22;70688;52.492;13.420;2023-08-07T11:46:45;21.00;55.40
81216;DHT22;70688;52.492;13.420;2023-08-07T11:49:11;20.80;57.30
81216;DHT22;70688;52.492;13.420;2023-08-07T11:51:37;20.70;58.50
81216;DHT22;70688;52.492;13.420;2023-08-07T11:54:03;20.60;59.50
81216;DHT22;70688;52.492;13.420;2023-08-07T11:56:29;20.90;58.80
81216;DHT22;70688;52.492;13.420;2023-08-07T11:58:56;21.20;57.30
81216;DHT22;70688;52.492;13.420;2023-08-07T12:01:23;21.70;55.30
81216;DHT22;70688;52.492;13.420;2023-08-07T12:03:57;21.80;54.60
81216;DHT22;70688;52.492;13.420;2023-08-07T12:06:37;22.00;53.70
81216;DHT22;70688;52.492;13.420;2023-08-07T12:09:05;22.00;52.40
81216;DHT22;70688;52.492;13.420;2023-08-07T12:11:36;22.00;52.70
81216;DHT22;70688;52.492;13.420;2023-08-07T12:14:02;21.80;53.50
81216;DHT22;70688;52.492;13.420;2023-08-07T12:16:32;21.90;52.50
81216;DHT22;70688;52.492;13.420;2023-08-07T12:18:58;21.80;52.20
81216;DHT22;70688;52.492;13.420;2023-08-07T12:21:27;21.80;51.50
81216;DHT22;70688;52.492;13.420;2023-08-07T12:23:57;21.90;51.40
81216;DHT22;70688;52.492;13.420;2023-08-07T12:26:23;21.50;52.80
81216;DHT22;70688;52.492;13.420;2023-08-07T12:28:48;21.30;54.00
81216;DHT22;70688;52.492;13.420;2023-08-07T12:31:15;21.20;53.30
81216;DHT22;70688;52.492;13.420;2023-08-07T12:33:40;21.10;53.50
81216;DHT22;70688;52.492;13.420;2023-08-07T12:36:06;21.10;53.70
81216;DHT22;70688;52.492;13.420;2023-08-07T12:38:33;21.00;53.20
81216;DHT22;70688;52.492;13.420;2023-08-07T12:40:59;21.00;53.90
81216;DHT22;70688;52.492;13.420;2023-08-07T12:43:25;21.10;53.80
81216;DHT22;70688;52.492;13.420;2023-08-07T12:45:51;21.00;54.40
81216;DHT22;70688;52.492;13.420;2023-08-07T12:48:18;20.70;56.40
81216;DHT22;70688;52.492;13.420;2023-08-07T12:50:44;20.80;55.40
81216;DHT22;70688;52.492;13.420;2023-08-07T12:53:10;20.80;56.10
81216;DHT22;70688;52.492;13.420;2023-08-07T12:55:35;21.00;54.30
81216;DHT22;70688;52.492;13.420;2023-08-07T12:58:01;21.10;54.20
81216;DHT22;70688;52.492;13.420;2023-08-07T13:00:26;20.80;53.70
81216;DHT22;70688;52.492;13.420;2023-08-07T13:02:52;20.50;56.20
81216;DHT22;70688;52.492;13.420;2023-08-07T13:05:19;20.50;54.80
81216;DHT22;70688;52.492;13.420;2023-08-07T13:07:46;20.50;55.00
81216;DHT22;70688;52.492;13.420;2023-08-07T13:10:13;20.60;52.90
81216;DHT22;70688;52.492;13.420;2023-08-07T13:12:42;20.70;52.80
81216;DHT22;70688;52.492;13.420;2023-08-07T13:15:10;20.80;51.70
81216;DHT22;70688;52.492;13.420;2023-08-07T13:17:38;21.10;53.10
81216;DHT22;70688;52.492;13.420;2023-08-07T13:20:05;21.40;50.90
81216;DHT22;70688;52.492;13.420;2023-08-07T13:22:43;21.40;50.20
81216;DHT22;70688;52.492;13.420;2023-08-07T13:25:11;21.60;50.60
81216;DHT22;70688;52.492;13.420;2023-08-07T13:27:38;21.50;51.40
81216;DHT22;70688;52.492;13.420;2023-08-07T13:30:05;21.80;50.80
81216;DHT22;70688;52.492;13.420;2023-08-07T13:32:31;21.60;51.40
81216;DHT22;70688;52.492;13.420;2023-08-07T13:34:57;21.50;48.10
81216;DHT22;70688;52.492;13.420;2023-08-07T13:37:23;21.40;45.60
81216;DHT22;70688;52.492;13.420;2023-08-07T13:39:49;21.40;43.20
81216;DHT22;70688;52.492;13.420;2023-08-07T13:42:17;21.40;44.10
81216;DHT22;70688;52.492;13.420;2023-08-07T13:44:43;21.40;42.40
81216;DHT22;70688;52.492;13.420;2023-08-07T13:47:09;21.40;43.50
81216;DHT22;70688;52.492;13.420;2023-08-07T13:49:36;21.50;42.80
81216;DHT22;70688;52.492;13.420;2023-08-07T13:52:01;21.60;42.60
81216;DHT22;70688;52.492;13.420;2023-08-07T13:54:28;21.80;41.50
81216;DHT22;70688;52.492;13.420;2023-08-07T13:56:53;21.60;41.10
81216;DHT22;70688;52.492;13.420;2023-08-07T13:59:19;21.50;41.50
81216;DHT22;70688;52.492;13.420;2023-08-07T14:01:45;21.60;41.20
81216;DHT22;70688;52.492;13.420;2023-08-07T14:04:10;21.70;40.80
81216;DHT22;70688;52.492;13.420;2023-08-07T14:06:36;21.60;41.30
81216;DHT22;70688;52.492;13.420;2023-08-07T14:09:02;21.60;41.70
81216;DHT22;70688;52.492;13.420;2023-08-07T14:11:28;21.70;41.20
81216;DHT22;70688;52.492;13.420;2023-08-07T14:13:59;21.80;41.10
81216;DHT22;70688;52.492;13.420;2023-08-07T14:16:25;21.80;40.30
81216;DHT22;70688;52.492;13.420;2023-08-07T14:18:51;21.70;40.60
81216;DHT22;70688;52.492;13.420;2023-08-07T14:21:17;21.70;41.20
81216;DHT22;70688;52.492;13.420;2023-08-07T14:23:43;21.50;41.90
81216;DHT22;70688;52.492;13.420;2023-08-07T14:26:13;21.80;41.70
81216;DHT22;70688;52.492;13.420;2023-08-07T14:28:39;21.90;40.70
81216;DHT22;70688;52.492;13.420;2023-08-07T14:31:09;21.90;41.00
81216;DHT22;70688;52.492;13.420;2023-08-07T14:33:35;22.00;40.60
81216;DHT22;70688;52.492;13.420;2023-08-07T14:36:01;21.80;41.00
81216;DHT22;70688;52.492;13.420;2023-08-07T14:38:27;21.60;40.80
81216;DHT22;70688;52.492;13.420;2023-08-07T14:40:53;21.80;40.20
81216;DHT22;70688;52.492;13.420;2023-08-07T14:43:19;21.80;40.30
81216;DHT22;70688;52.492;13.420;2023-08-07T14:45:45;21.70;40.10
81216;DHT22;70688;52.492;13.420;2023-08-07T14:48:10;21.60;39.80
81216;DHT22;70688;52.492;13.420;2023-08-07T14:50:36;21.50;40.10
81216;DHT22;70688;52.492;13.420;2023-08-07T14:53:01;21.30;40.10
81216;DHT22;70688;52.492;13.420;2023-08-07T14:55:27;21.30;40.40
81216;DHT22;70688;52.492;13.420;2023-08-07T14:57:53;21.30;41.00
81216;DHT22;70688;52.492;13.420;2023-08-07T15:00:18;21.10;41.30
81216;DHT22;70688;52.492;13.420;2023-08-07T15:02:45;21.00;41.30
81216;DHT22;70688;52.492;13.420;2023-08-07T15:05:11;20.90;42.00
81216;DHT22;70688;52.492;13.420;2023-08-07T15:07:36;20.80;41.80
81216;DHT22;70688;52.492;13.420;2023-08-07T15:10:02;20.90;41.90
81216;DHT22;70688;52.492;13.420;2023-08-07T15:12:28;20.80;42.10
81216;DHT22;70688;52.492;13.420;2023-08-07T15:14:53;21.00;42.00
81216;DHT22;70688;52.492;13.420;2023-08-07T15:17:19;20.90;41.30
81216;DHT22;70688;52.492;13.420;2023-08-07T15:19:45;21.00;40.30
81216;DHT22;70688;52.492;13.420;2023-08-07T15:22:14;21.00;40.60